createdAt,value
2023-03-27T00:01:16.285Z,100.00
2023-03-27T00:03:43.067Z,100.00
2023-03-27T00:06:16.203Z,100.00
2023-03-27T00:08:48.032Z,100.00
2023-03-27T00:11:15.084Z,100.00
2023-03-27T00:13:42.451Z,100.00
2023-03-27T00:16:16.645Z,100.00
2023-03-27T00:18:44.763Z,100.00
2023-03-27T00:21:11.265Z,100.00
2023-03-27T00:23:37.658Z,100.00
2023-03-27T00:26:04.323Z,100.00
2023-03-27T00:28:30.993Z,100.00
2023-03-27T00:30:58.384Z,100.00
2023-03-27T00:33:25.408Z,100.00
2023-03-27T00:35:52.218Z,100.00
2023-03-27T00:38:19.170Z,100.00
2023-03-27T00:40:46.768Z,100.00
2023-03-27T00:43:19.132Z,100.00
2023-03-27T00:45:47.126Z,100.00
2023-03-27T00:48:14.803Z,100.00
2023-03-27T00:50:43.742Z,100.00
2023-03-27T00:53:16.978Z,100.00
2023-03-27T00:55:47.045Z,100.00
2023-03-27T00:58:21.246Z,100.00
2023-03-27T01:00:52.900Z,100.00
2023-03-27T01:03:21.438Z,100.00
2023-03-27T01:05:49.987Z,100.00
2023-03-27T01:08:17.305Z,100.00
2023-03-27T01:11:01.723Z,100.00
2023-03-27T01:13:39.126Z,100.00
2023-03-27T01:16:15.057Z,100.00
2023-03-27T01:19:03.388Z,100.00
2023-03-27T01:22:03.777Z,100.00
2023-03-27T01:24:51.702Z,100.00
2023-03-27T01:28:02.616Z,100.00
2023-03-27T01:30:41.156Z,99.79
2023-03-27T01:33:48.333Z,99.28
2023-03-27T01:36:31.420Z,99.22
2023-03-27T01:39:16.613Z,98.80
2023-03-27T01:41:56.756Z,97.89
2023-03-27T01:44:42.721Z,97.71
2023-03-27T01:47:22.388Z,98.78
2023-03-27T01:50:00.630Z,100.00
2023-03-27T01:52:32.927Z,100.00
2023-03-27T01:55:05.107Z,100.00
2023-03-27T01:57:48.797Z,100.00
2023-03-27T02:00:21.789Z,100.00
2023-03-27T02:02:51.409Z,100.00
2023-03-27T02:05:27.487Z,100.00
2023-03-27T02:07:59.953Z,100.00
2023-03-27T02:10:34.052Z,100.00
2023-03-27T02:13:07.382Z,100.00
2023-03-27T02:15:37.676Z,100.00
2023-03-27T02:18:10.070Z,100.00
2023-03-27T02:20:39.660Z,100.00
2023-03-27T02:23:07.640Z,100.00
2023-03-27T02:25:35.899Z,100.00
2023-03-27T02:28:22.799Z,100.00
2023-03-27T02:31:33.841Z,100.00
2023-03-27T02:34:00.813Z,100.00
2023-03-27T02:36:40.503Z,100.00
2023-03-27T02:39:15.247Z,100.00
2023-03-27T02:42:12.136Z,100.00
2023-03-27T02:44:52.613Z,100.00
2023-03-27T02:47:32.669Z,100.00
2023-03-27T02:50:09.369Z,100.00
2023-03-27T02:52:41.873Z,100.00
2023-03-27T02:55:14.719Z,100.00
2023-03-27T02:57:52.621Z,100.00
2023-03-27T03:00:25.939Z,100.00
2023-03-27T03:03:00.666Z,100.00
2023-03-27T03:05:27.469Z,100.00
2023-03-27T03:07:54.409Z,100.00
2023-03-27T03:10:21.452Z,100.00
2023-03-27T03:12:47.915Z,100.00
2023-03-27T03:15:14.525Z,100.00
2023-03-27T03:17:41.710Z,100.00
2023-03-27T03:20:09.820Z,100.00
2023-03-27T03:22:37.955Z,100.00
2023-03-27T03:25:04.940Z,100.00
2023-03-27T03:27:31.379Z,100.00
2023-03-27T03:29:57.785Z,100.00
2023-03-27T03:32:24.418Z,100.00
2023-03-27T03:34:50.990Z,100.00
2023-03-27T03:37:17.486Z,100.00
2023-03-27T03:39:44.050Z,100.00
2023-03-27T03:42:10.660Z,100.00
2023-03-27T03:44:49.804Z,100.00
2023-03-27T03:47:16.716Z,100.00
2023-03-27T03:49:43.172Z,100.00
2023-03-27T03:52:09.652Z,100.00
2023-03-27T03:54:38.736Z,100.00
2023-03-27T03:57:05.408Z,100.00
2023-03-27T03:59:32.288Z,100.00
2023-03-27T04:01:58.797Z,100.00
2023-03-27T04:04:25.511Z,100.00
2023-03-27T04:06:53.012Z,100.00
2023-03-27T04:09:21.173Z,100.00
2023-03-27T04:11:47.596Z,100.00
2023-03-27T04:14:14.061Z,100.00
2023-03-27T04:16:40.847Z,100.00
2023-03-27T04:19:07.373Z,100.00
2023-03-27T04:21:33.896Z,100.00
2023-03-27T04:24:02.556Z,100.00
2023-03-27T04:26:29.628Z,100.00
2023-03-27T04:28:56.181Z,100.00
2023-03-27T04:31:22.647Z,99.98
2023-03-27T04:33:52.312Z,100.00
2023-03-27T04:36:19.277Z,100.00
2023-03-27T04:38:47.857Z,100.00
2023-03-27T04:41:14.621Z,100.00
2023-03-27T04:43:41.747Z,99.28
2023-03-27T04:46:08.390Z,97.38
2023-03-27T04:48:38.340Z,97.79
2023-03-27T04:51:06.823Z,98.81
2023-03-27T04:53:36.165Z,99.10
2023-03-27T04:56:03.501Z,98.92
2023-03-27T04:58:30.024Z,99.31
2023-03-27T05:00:57.525Z,97.85
2023-03-27T05:03:24.324Z,97.76
2023-03-27T05:05:51.012Z,98.01
2023-03-27T05:08:18.629Z,98.88
2023-03-27T05:10:46.519Z,99.29
2023-03-27T05:13:13.151Z,97.88
2023-03-27T05:15:39.605Z,97.18
2023-03-27T05:18:07.227Z,96.18
2023-03-27T05:20:34.473Z,96.88
2023-03-27T05:23:01.114Z,96.80
2023-03-27T05:25:28.735Z,96.24
2023-03-27T05:30:24.780Z,99.43
2023-03-27T05:32:52.631Z,100.00
2023-03-27T05:35:21.604Z,100.00
2023-03-27T05:37:50.230Z,100.00
2023-03-27T05:40:21.804Z,100.00
2023-03-27T05:42:49.661Z,100.00
2023-03-27T05:45:16.394Z,100.00
2023-03-27T05:47:56.824Z,100.00
2023-03-27T05:50:26.498Z,100.00
2023-03-27T05:52:57.376Z,100.00
2023-03-27T05:55:26.988Z,100.00
2023-03-27T05:57:54.244Z,99.40
2023-03-27T06:00:27.399Z,98.74
2023-03-27T06:02:56.378Z,99.28
2023-03-27T06:05:23.956Z,99.21
2023-03-27T06:07:51.326Z,97.92
2023-03-27T06:10:20.219Z,96.43
2023-03-27T06:12:48.920Z,92.85
2023-03-27T06:15:16.305Z,90.37
2023-03-27T06:17:46.668Z,89.43
2023-03-27T06:20:14.996Z,92.85
2023-03-27T06:22:44.052Z,96.24
2023-03-27T06:25:10.532Z,99.31
2023-03-27T06:27:37.951Z,99.63
2023-03-27T06:30:05.051Z,98.69
2023-03-27T06:32:31.606Z,98.13
2023-03-27T06:34:58.075Z,97.92
2023-03-27T06:37:25.041Z,96.90
2023-03-27T06:39:52.107Z,97.40
2023-03-27T06:42:18.611Z,98.27
2023-03-27T06:44:45.083Z,99.42
2023-03-27T06:47:12.626Z,100.00
2023-03-27T06:49:39.223Z,100.00
2023-03-27T06:52:05.806Z,100.00
2023-03-27T06:54:32.388Z,99.48
2023-03-27T06:57:01.173Z,98.75
2023-03-27T06:59:27.622Z,98.10
2023-03-27T07:01:54.050Z,97.85
2023-03-27T07:04:21.254Z,97.25
2023-03-27T07:06:48.900Z,97.03
2023-03-27T07:09:15.477Z,96.36
2023-03-27T07:11:42.092Z,95.55
2023-03-27T07:14:08.647Z,92.70
2023-03-27T07:16:35.163Z,90.28
2023-03-27T07:19:02.372Z,84.17
2023-03-27T07:21:29.538Z,83.45
2023-03-27T07:23:56.062Z,83.59
2023-03-27T07:26:22.589Z,84.16
2023-03-27T07:28:50.461Z,85.23
2023-03-27T07:33:47.097Z,85.01
2023-03-27T07:36:14.275Z,84.86
2023-03-27T07:38:42.132Z,81.29
2023-03-27T07:41:09.329Z,77.14
2023-03-27T07:43:35.874Z,74.96
2023-03-27T07:46:06.055Z,78.21
2023-03-27T07:48:33.031Z,87.08
2023-03-27T07:51:10.792Z,91.80
2023-03-27T07:53:41.546Z,92.41
2023-03-27T07:56:08.836Z,92.04
2023-03-27T07:58:35.409Z,87.08
2023-03-27T08:01:02.624Z,84.11
2023-03-27T08:03:30.779Z,87.94
2023-03-27T08:05:59.564Z,85.25
2023-03-27T08:08:27.687Z,85.17
2023-03-27T08:10:55.443Z,83.65
2023-03-27T08:13:22.073Z,83.07
2023-03-27T08:15:48.638Z,78.84
2023-03-27T08:18:15.307Z,75.90
2023-03-27T08:20:45.698Z,74.58
2023-03-27T08:23:12.633Z,70.85
2023-03-27T08:25:39.889Z,69.48
2023-03-27T08:28:07.224Z,70.60
2023-03-27T08:30:35.254Z,68.90
2023-03-27T08:33:02.457Z,70.55
2023-03-27T08:35:28.960Z,68.24
2023-03-27T08:37:55.475Z,68.88
2023-03-27T08:40:28.284Z,67.73
2023-03-27T08:43:02.061Z,70.83
2023-03-27T08:46:09.405Z,69.51
2023-03-27T08:48:43.813Z,70.28
2023-03-27T08:51:19.901Z,68.50
2023-03-27T08:54:12.015Z,61.99
2023-03-27T08:56:38.664Z,60.79
2023-03-27T08:59:17.204Z,60.11
2023-03-27T09:01:59.307Z,62.01
2023-03-27T09:04:50.825Z,60.68
2023-03-27T09:07:28.536Z,58.23
2023-03-27T09:10:18.236Z,57.77
2023-03-27T09:12:44.863Z,59.77
2023-03-27T09:15:16.744Z,61.10
2023-03-27T09:17:50.053Z,59.70
2023-03-27T09:20:24.304Z,60.37
2023-03-27T09:22:55.730Z,60.36
2023-03-27T09:25:34.424Z,58.92
2023-03-27T09:28:03.459Z,58.15
2023-03-27T09:30:33.678Z,61.70
2023-03-27T09:33:05.694Z,59.88
2023-03-27T09:35:35.593Z,59.16
2023-03-27T09:38:10.193Z,58.25
2023-03-27T09:40:45.776Z,62.16
2023-03-27T09:43:18.880Z,64.35
2023-03-27T09:45:47.887Z,65.80
2023-03-27T09:48:32.763Z,65.18
2023-03-27T09:50:59.251Z,68.23
2023-03-27T09:53:27.936Z,72.45
2023-03-27T09:55:56.613Z,71.96
2023-03-27T09:58:23.078Z,72.71
2023-03-27T10:01:06.970Z,74.05
2023-03-27T10:03:48.615Z,72.95
2023-03-27T10:06:25.351Z,69.98
2023-03-27T10:08:52.553Z,67.50
2023-03-27T10:11:23.991Z,66.55
2023-03-27T10:13:51.569Z,62.44
2023-03-27T10:16:21.494Z,59.00
2023-03-27T10:18:52.384Z,57.64
2023-03-27T10:21:33.416Z,59.26
2023-03-27T10:24:22.287Z,57.19
2023-03-27T10:26:52.314Z,56.50
2023-03-27T10:29:45.361Z,59.06
2023-03-27T10:32:11.834Z,60.63
2023-03-27T10:34:51.504Z,57.21
2023-03-27T10:37:35.228Z,56.20
2023-03-27T10:40:03.968Z,59.16
2023-03-27T10:42:32.698Z,69.72
2023-03-27T10:45:00.316Z,75.93
2023-03-27T10:47:32.129Z,76.12
2023-03-27T10:50:09.359Z,79.12
2023-03-27T10:52:45.052Z,85.10
2023-03-27T10:55:36.800Z,89.80
2023-03-27T10:58:13.198Z,88.40
2023-03-27T11:00:46.660Z,88.94
2023-03-27T11:03:22.697Z,88.50
2023-03-27T11:05:53.747Z,86.89
2023-03-27T11:08:29.207Z,86.70
2023-03-27T11:11:00.806Z,84.55
2023-03-27T11:13:33.662Z,84.78
2023-03-27T11:16:18.026Z,80.32
2023-03-27T11:19:02.414Z,78.02
2023-03-27T11:21:47.587Z,76.19
2023-03-27T11:24:34.038Z,78.26
2023-03-27T11:27:11.384Z,74.16
2023-03-27T11:30:08.329Z,75.46
2023-03-27T11:32:49.217Z,72.42
2023-03-27T11:35:23.351Z,72.49
2023-03-27T11:37:53.662Z,71.47
2023-03-27T11:40:28.435Z,80.21
2023-03-27T11:42:55.503Z,85.64
2023-03-27T11:45:24.948Z,89.57
2023-03-27T11:48:08.676Z,88.53
2023-03-27T11:50:58.891Z,84.84
2023-03-27T11:53:34.695Z,81.56
2023-03-27T11:56:20.027Z,77.31
2023-03-27T11:59:06.141Z,71.03
2023-03-27T12:01:42.524Z,69.52
2023-03-27T12:04:09.419Z,66.64
2023-03-27T12:07:12.349Z,67.94
2023-03-27T12:09:48.044Z,68.68
2023-03-27T12:12:40.868Z,65.12
2023-03-27T12:15:16.208Z,63.85
2023-03-27T12:18:03.985Z,62.28
2023-03-27T12:20:52.861Z,68.71
2023-03-27T12:23:26.335Z,70.69
2023-03-27T12:26:12.588Z,70.00
2023-03-27T12:28:52.092Z,71.90
2023-03-27T12:31:53.969Z,75.14
2023-03-27T12:34:50.287Z,75.31
2023-03-27T12:37:20.256Z,73.24
2023-03-27T12:39:54.226Z,70.25
2023-03-27T12:43:02.238Z,67.95
2023-03-27T12:45:28.981Z,67.20
2023-03-27T12:48:10.976Z,65.51
2023-03-27T12:50:52.714Z,66.88
2023-03-27T12:53:39.161Z,62.83
2023-03-27T12:56:17.910Z,65.09
2023-03-27T12:58:49.705Z,67.30
2023-03-27T13:01:48.997Z,68.63
2023-03-27T13:04:42.878Z,66.93
2023-03-27T13:07:47.459Z,62.32
2023-03-27T13:11:02.517Z,57.28
2023-03-27T13:13:38.106Z,52.96
2023-03-27T13:16:26.041Z,55.69
2023-03-27T13:19:20.286Z,55.58
2023-03-27T13:21:49.927Z,50.87
2023-03-27T13:24:36.705Z,53.04
2023-03-27T13:27:41.038Z,52.95
2023-03-27T13:30:39.404Z,50.52
2023-03-27T13:33:17.474Z,48.98
2023-03-27T13:36:02.722Z,47.81
2023-03-27T13:38:55.159Z,47.57
2023-03-27T13:41:46.984Z,46.50
2023-03-27T13:44:58.671Z,44.22
2023-03-27T13:47:34.172Z,42.94
2023-03-27T13:50:54.154Z,51.90
2023-03-27T13:53:39.149Z,59.02
2023-03-27T13:56:20.453Z,51.17
2023-03-27T13:59:11.244Z,55.29
2023-03-27T14:02:03.941Z,50.74
2023-03-27T14:05:09.343Z,49.22
2023-03-27T14:07:58.676Z,55.91
2023-03-27T14:10:48.551Z,54.96
2023-03-27T14:13:39.314Z,49.01
2023-03-27T14:16:41.659Z,46.86
2023-03-27T14:19:50.568Z,48.85
2023-03-27T14:22:32.602Z,49.91
2023-03-27T14:25:05.393Z,47.63
2023-03-27T14:27:34.546Z,45.40
2023-03-27T14:30:15.704Z,48.28
2023-03-27T14:32:43.309Z,49.95
2023-03-27T14:35:33.995Z,49.25
2023-03-27T14:38:03.566Z,47.95
2023-03-27T14:40:33.732Z,46.62
2023-03-27T14:43:02.259Z,44.35
2023-03-27T14:45:35.516Z,47.48
2023-03-27T14:48:10.095Z,49.83
2023-03-27T14:50:38.790Z,48.88
2023-03-27T14:53:10.907Z,51.35
2023-03-27T14:55:39.835Z,51.65
2023-03-27T14:58:13.581Z,51.22
2023-03-27T15:00:41.593Z,52.03
2023-03-27T15:03:14.839Z,54.32
2023-03-27T15:06:01.898Z,56.06
2023-03-27T15:08:33.568Z,60.75
2023-03-27T15:11:00.413Z,68.23
2023-03-27T15:13:35.360Z,70.56
2023-03-27T15:16:03.466Z,71.13
2023-03-27T15:18:36.344Z,74.58
2023-03-27T15:21:20.362Z,74.92
2023-03-27T15:23:58.959Z,71.95
2023-03-27T15:26:31.683Z,68.86
2023-03-27T15:29:01.796Z,68.05
2023-03-27T15:31:29.649Z,65.84
2023-03-27T15:34:06.750Z,67.35
2023-03-27T15:36:37.426Z,66.58
2023-03-27T15:39:06.557Z,65.69
2023-03-27T15:41:33.104Z,66.07
2023-03-27T15:44:03.668Z,64.42
2023-03-27T15:46:52.986Z,64.39
2023-03-27T15:49:34.235Z,65.61
2023-03-27T15:52:33.480Z,65.04
2023-03-27T15:55:00.974Z,63.36
2023-03-27T15:57:31.640Z,63.47
2023-03-27T16:00:08.514Z,64.10
2023-03-27T16:02:36.015Z,64.96
2023-03-27T16:05:02.616Z,65.33
2023-03-27T16:07:43.624Z,66.44
2023-03-27T16:10:11.277Z,65.17
2023-03-27T16:12:43.447Z,66.35
2023-03-27T16:15:29.911Z,66.38
2023-03-27T16:17:58.727Z,67.40
2023-03-27T16:20:25.582Z,66.70
2023-03-27T16:22:52.654Z,66.75
2023-03-27T16:25:19.206Z,67.58
2023-03-27T16:27:51.476Z,66.54
2023-03-27T16:30:24.131Z,65.62
2023-03-27T16:32:51.160Z,68.23
2023-03-27T16:35:18.304Z,69.95
2023-03-27T16:37:44.805Z,70.91
2023-03-27T16:40:11.641Z,70.15
2023-03-27T16:42:38.067Z,69.69
2023-03-27T16:45:05.371Z,65.88
2023-03-27T16:47:31.993Z,66.29
2023-03-27T16:50:11.016Z,68.93
2023-03-27T16:52:38.245Z,68.51
2023-03-27T16:55:07.217Z,69.41
2023-03-27T16:57:33.787Z,70.06
2023-03-27T17:00:00.392Z,71.36
2023-03-27T17:02:27.532Z,71.67
2023-03-27T17:04:54.120Z,75.87
2023-03-27T17:07:21.078Z,76.05
2023-03-27T17:09:47.468Z,77.57
2023-03-27T17:12:13.860Z,78.07
2023-03-27T17:14:40.482Z,78.98
2023-03-27T17:17:06.895Z,78.00
2023-03-27T17:19:33.499Z,77.34
2023-03-27T17:21:59.956Z,77.51
2023-03-27T17:24:26.389Z,79.43
2023-03-27T17:26:52.874Z,80.58
2023-03-27T17:29:19.595Z,82.73
2023-03-27T17:31:46.183Z,82.59
2023-03-27T17:34:13.114Z,81.99
2023-03-27T17:36:47.250Z,81.75
2023-03-27T17:39:18.948Z,82.14
2023-03-27T17:41:45.549Z,82.67
2023-03-27T17:44:12.455Z,81.50
2023-03-27T17:46:38.986Z,82.35
2023-03-27T17:49:05.447Z,81.43
2023-03-27T17:51:31.854Z,82.13
2023-03-27T17:53:58.412Z,83.20
2023-03-27T17:56:24.946Z,85.09
2023-03-27T17:58:51.518Z,85.48
2023-03-27T18:01:20.569Z,83.49
2023-03-27T18:03:47.979Z,84.82
2023-03-27T18:06:17.292Z,84.55
2023-03-27T18:08:44.776Z,82.88
2023-03-27T18:11:12.764Z,82.42
2023-03-27T18:13:39.579Z,81.56
2023-03-27T18:16:08.775Z,83.99
2023-03-27T18:18:35.432Z,85.83
2023-03-27T18:21:02.100Z,85.58
2023-03-27T18:23:28.831Z,85.09
2023-03-27T18:25:55.556Z,83.54
2023-03-27T18:28:22.422Z,84.54
2023-03-27T18:30:57.949Z,84.28
2023-03-27T18:33:24.410Z,84.76
2023-03-27T18:35:56.149Z,85.46
2023-03-27T18:38:24.615Z,84.25
2023-03-27T18:40:52.225Z,84.32
2023-03-27T18:43:18.630Z,84.57
2023-03-27T18:45:45.188Z,83.58
2023-03-27T18:48:11.805Z,84.01
2023-03-27T18:50:38.233Z,83.37
2023-03-27T18:53:05.059Z,84.35
2023-03-27T18:55:32.295Z,84.29
2023-03-27T18:57:58.670Z,86.12
2023-03-27T19:00:25.096Z,86.81
2023-03-27T19:02:51.672Z,86.25
2023-03-27T19:05:18.182Z,84.23
2023-03-27T19:07:45.060Z,84.18
2023-03-27T19:10:12.783Z,83.15
2023-03-27T19:12:39.273Z,82.13
2023-03-27T19:15:17.252Z,81.93
2023-03-27T19:17:46.659Z,81.64
2023-03-27T19:20:13.746Z,81.23
2023-03-27T19:22:40.244Z,81.42
2023-03-27T19:25:07.379Z,82.23
2023-03-27T19:27:38.394Z,81.85
2023-03-27T19:30:07.246Z,80.93
2023-03-27T19:32:33.878Z,83.32
2023-03-27T19:35:00.398Z,82.74
2023-03-27T19:37:27.024Z,84.47
2023-03-27T19:39:53.545Z,84.48
2023-03-27T19:42:20.065Z,83.56
2023-03-27T19:44:46.482Z,83.73
2023-03-27T19:47:12.991Z,83.27
2023-03-27T19:49:40.046Z,81.68
2023-03-27T19:52:07.218Z,80.95
2023-03-27T19:54:33.664Z,81.22
2023-03-27T19:57:00.310Z,81.46
2023-03-27T19:59:30.814Z,82.51
2023-03-27T20:01:57.913Z,82.54
2023-03-27T20:04:24.404Z,82.56
2023-03-27T20:06:51.387Z,83.44
2023-03-27T20:09:18.901Z,83.66
2023-03-27T20:11:46.630Z,83.67
2023-03-27T20:14:13.662Z,84.66
2023-03-27T20:16:40.153Z,83.28
2023-03-27T20:19:07.129Z,84.36
2023-03-27T20:21:37.679Z,83.66
2023-03-27T20:24:05.808Z,84.10
2023-03-27T20:26:38.785Z,84.79
2023-03-27T20:29:10.783Z,85.69
2023-03-27T20:31:38.036Z,85.90
2023-03-27T20:34:05.870Z,85.17
2023-03-27T20:36:35.996Z,83.23
2023-03-27T20:39:06.679Z,82.46
2023-03-27T20:41:34.322Z,82.46
2023-03-27T20:44:00.900Z,82.70
2023-03-27T20:46:30.502Z,84.55
2023-03-27T20:48:57.127Z,85.28
2023-03-27T20:51:24.716Z,88.05
2023-03-27T20:53:55.655Z,88.29
2023-03-27T20:56:22.939Z,88.98
2023-03-27T20:58:49.842Z,87.09
2023-03-27T21:01:19.258Z,88.10
2023-03-27T21:03:49.481Z,89.96
2023-03-27T21:06:18.740Z,90.73
2023-03-27T21:08:45.859Z,90.67
2023-03-27T21:11:15.153Z,90.09
2023-03-27T21:13:41.673Z,88.93
2023-03-27T21:16:08.585Z,87.48
2023-03-27T21:18:35.486Z,87.52
2023-03-27T21:21:02.049Z,87.72
2023-03-27T21:23:28.492Z,86.42
2023-03-27T21:25:55.295Z,87.18
2023-03-27T21:28:21.766Z,87.13
2023-03-27T21:30:48.732Z,87.34
2023-03-27T21:33:16.513Z,87.10
2023-03-27T21:35:46.148Z,85.84
2023-03-27T21:38:13.917Z,85.17
2023-03-27T21:40:40.963Z,86.50
2023-03-27T21:43:08.987Z,86.06
2023-03-27T21:45:36.191Z,86.89
2023-03-27T21:48:02.718Z,85.80
2023-03-27T21:50:29.346Z,86.83
2023-03-27T21:52:55.810Z,87.86
2023-03-27T21:55:22.231Z,87.32
2023-03-27T21:57:48.674Z,85.89
2023-03-27T22:00:15.853Z,84.82
2023-03-27T22:02:42.821Z,84.74
2023-03-27T22:05:09.792Z,84.83
2023-03-27T22:07:36.301Z,84.77
2023-03-27T22:10:05.446Z,84.81
2023-03-27T22:12:35.717Z,86.97
2023-03-27T22:15:02.285Z,86.26
2023-03-27T22:17:28.884Z,86.19
2023-03-27T22:19:55.886Z,86.44
2023-03-27T22:22:22.280Z,87.14
2023-03-27T22:24:48.683Z,87.93
2023-03-27T22:27:15.333Z,88.38
2023-03-27T22:29:41.983Z,89.03
2023-03-27T22:32:08.619Z,88.72
2023-03-27T22:34:35.026Z,90.54
2023-03-27T22:37:01.700Z,90.19
2023-03-27T22:39:28.456Z,90.04
2023-03-27T22:41:54.873Z,91.57
2023-03-27T22:44:21.563Z,92.36
2023-03-27T22:46:48.100Z,89.84
2023-03-27T22:49:15.217Z,89.17
2023-03-27T22:51:41.590Z,88.29
2023-03-27T22:54:08.313Z,88.18
2023-03-27T22:56:34.904Z,88.39
2023-03-27T22:59:01.354Z,87.46
2023-03-27T23:01:27.831Z,87.08
2023-03-27T23:03:54.529Z,87.55
2023-03-27T23:06:22.746Z,86.65
2023-03-27T23:08:50.390Z,86.41
2023-03-27T23:11:18.379Z,86.03
2023-03-27T23:13:45.234Z,85.49
2023-03-27T23:16:13.071Z,86.16
2023-03-27T23:18:39.591Z,85.71
2023-03-27T23:21:08.972Z,86.08
2023-03-27T23:23:37.649Z,86.92
2023-03-27T23:26:05.794Z,86.65
2023-03-27T23:28:35.436Z,86.65
2023-03-27T23:31:07.635Z,86.19
2023-03-27T23:33:37.176Z,86.60
2023-03-27T23:36:12.563Z,86.50
2023-03-27T23:38:39.611Z,86.46
2023-03-27T23:41:07.371Z,87.28
2023-03-27T23:43:34.421Z,86.54
2023-03-27T23:46:01.143Z,87.50
2023-03-27T23:48:29.280Z,87.67
2023-03-27T23:50:56.936Z,87.33
2023-03-27T23:53:25.747Z,87.48
2023-03-27T23:55:52.758Z,86.09
2023-03-27T23:58:19.671Z,86.02
